sensor_id;sensor_type;location;lat;lon;timestamp;P1;durP1;ratioP1;P2;durP2;ratioP2
40322;SDS011;26030;51.164;17.100;2022-09-20T00:04:05;4.10;;;1.60;;
40322;SDS011;26030;51.164;17.100;2022-09-20T00:09:10;3.40;;;1.70;;
40322;SDS011;26030;51.164;17.100;2022-09-20T00:14:14;3.90;;;1.60;;
40322;SDS011;26030;51.164;17.100;2022-09-20T00:19:20;3.70;;;1.70;;
40322;SDS011;26030;51.164;17.100;2022-09-20T00:24:24;3.50;;;1.40;;
40322;SDS011;26030;51.164;17.100;2022-09-20T00:29:27;7.90;;;1.90;;
40322;SDS011;26030;51.164;17.100;2022-09-20T00:34:31;4.90;;;1.60;;
40322;SDS011;26030;51.164;17.100;2022-09-20T00:39:53;4.60;;;1.50;;
40322;SDS011;26030;51.164;17.100;2022-09-20T00:44:59;4.80;;;1.50;;
40322;SDS011;26030;51.164;17.100;2022-09-20T00:50:25;3.20;;;1.30;;
40322;SDS011;26030;51.164;17.100;2022-09-20T00:55:29;6.20;;;1.60;;
40322;SDS011;26030;51.164;17.100;2022-09-20T01:00:33;5.60;;;1.90;;
40322;SDS011;26030;51.164;17.100;2022-09-20T01:05:37;4.10;;;1.70;;
40322;SDS011;26030;51.164;17.100;2022-09-20T01:10:42;3.30;;;1.10;;
40322;SDS011;26030;51.164;17.100;2022-09-20T01:15:46;2.80;;;1.30;;
40322;SDS011;26030;51.164;17.100;2022-09-20T01:20:51;2.90;;;1.30;;
40322;SDS011;26030;51.164;17.100;2022-09-20T01:31:24;4.10;;;1.80;;
40322;SDS011;26030;51.164;17.100;2022-09-20T01:42:17;5.20;;;1.30;;
40322;SDS011;26030;51.164;17.100;2022-09-20T01:47:50;3.30;;;1.10;;
40322;SDS011;26030;51.164;17.100;2022-09-20T02:21:18;3.20;;;1.20;;
40322;SDS011;26030;51.164;17.100;2022-09-20T02:42:48;4.30;;;1.90;;
40322;SDS011;26030;51.164;17.100;2022-09-20T02:48:01;2.80;;;1.40;;
40322;SDS011;26030;51.164;17.100;2022-09-20T02:58:51;3.60;;;1.60;;
40322;SDS011;26030;51.164;17.100;2022-09-20T03:09:33;3.20;;;1.10;;
40322;SDS011;26030;51.164;17.100;2022-09-20T03:14:46;4.70;;;1.50;;
40322;SDS011;26030;51.164;17.100;2022-09-20T03:46:45;3.20;;;1.10;;
40322;SDS011;26030;51.164;17.100;2022-09-20T03:51:59;2.60;;;1.20;;
40322;SDS011;26030;51.164;17.100;2022-09-20T04:18:26;3.40;;;1.10;;
40322;SDS011;26030;51.164;17.100;2022-09-20T04:28:49;2.10;;;1.10;;
40322;SDS011;26030;51.164;17.100;2022-09-20T05:00:47;2.80;;;1.10;;
40322;SDS011;26030;51.164;17.100;2022-09-20T05:34:24;3.20;;;0.80;;
40322;SDS011;26030;51.164;17.100;2022-09-20T05:39:37;2.60;;;1.20;;
40322;SDS011;26030;51.164;17.100;2022-09-20T05:50:19;3.80;;;0.90;;
40322;SDS011;26030;51.164;17.100;2022-09-20T06:12:52;8.10;;;0.90;;
40322;SDS011;26030;51.164;17.100;2022-09-20T06:23:11;5.00;;;1.00;;
40322;SDS011;26030;51.164;17.100;2022-09-20T06:28:19;5.80;;;1.10;;
40322;SDS011;26030;51.164;17.100;2022-09-20T06:33:26;9.70;;;1.80;;
40322;SDS011;26030;51.164;17.100;2022-09-20T06:38:44;9.40;;;1.60;;
40322;SDS011;26030;51.164;17.100;2022-09-20T06:44:12;13.00;;;1.10;;
40322;SDS011;26030;51.164;17.100;2022-09-20T06:49:15;11.30;;;1.40;;
40322;SDS011;26030;51.164;17.100;2022-09-20T06:54:20;9.30;;;1.80;;
40322;SDS011;26030;51.164;17.100;2022-09-20T06:59:25;15.80;;;1.30;;
40322;SDS011;26030;51.164;17.100;2022-09-20T07:04:29;13.70;;;1.80;;
40322;SDS011;26030;51.164;17.100;2022-09-20T07:09:34;13.00;;;1.80;;
40322;SDS011;26030;51.164;17.100;2022-09-20T07:14:38;3.70;;;1.70;;
40322;SDS011;26030;51.164;17.100;2022-09-20T07:19:42;8.80;;;1.20;;
40322;SDS011;26030;51.164;17.100;2022-09-20T07:24:46;7.70;;;1.20;;
40322;SDS011;26030;51.164;17.100;2022-09-20T07:29:50;6.00;;;1.90;;
40322;SDS011;26030;51.164;17.100;2022-09-20T07:34:54;5.50;;;1.60;;
40322;SDS011;26030;51.164;17.100;2022-09-20T07:39:57;13.30;;;1.50;;
40322;SDS011;26030;51.164;17.100;2022-09-20T07:45:02;8.90;;;1.20;;
40322;SDS011;26030;51.164;17.100;2022-09-20T07:50:06;2.20;;;1.00;;
40322;SDS011;26030;51.164;17.100;2022-09-20T07:55:12;3.50;;;1.60;;
40322;SDS011;26030;51.164;17.100;2022-09-20T08:00:33;3.00;;;1.40;;
40322;SDS011;26030;51.164;17.100;2022-09-20T08:05:37;3.90;;;1.30;;
40322;SDS011;26030;51.164;17.100;2022-09-20T08:10:40;3.30;;;0.90;;
40322;SDS011;26030;51.164;17.100;2022-09-20T08:15:44;2.20;;;0.90;;
40322;SDS011;26030;51.164;17.100;2022-09-20T08:20:47;3.70;;;0.90;;
40322;SDS011;26030;51.164;17.100;2022-09-20T08:25:51;3.10;;;1.00;;
40322;SDS011;26030;51.164;17.100;2022-09-20T08:31:05;2.20;;;1.00;;
40322;SDS011;26030;51.164;17.100;2022-09-20T08:36:15;2.80;;;1.10;;
40322;SDS011;26030;51.164;17.100;2022-09-20T08:41:27;3.10;;;1.10;;
40322;SDS011;26030;51.164;17.100;2022-09-20T08:46:46;2.90;;;1.00;;
40322;SDS011;26030;51.164;17.100;2022-09-20T08:51:51;3.00;;;1.10;;
40322;SDS011;26030;51.164;17.100;2022-09-20T08:56:57;3.60;;;1.50;;
40322;SDS011;26030;51.164;17.100;2022-09-20T09:02:18;2.40;;;0.90;;
40322;SDS011;26030;51.164;17.100;2022-09-20T09:07:37;2.40;;;1.20;;
40322;SDS011;26030;51.164;17.100;2022-09-20T09:12:43;3.90;;;1.00;;
40322;SDS011;26030;51.164;17.100;2022-09-20T09:17:52;4.00;;;1.20;;
40322;SDS011;26030;51.164;17.100;2022-09-20T09:23:06;2.70;;;1.10;;
40322;SDS011;26030;51.164;17.100;2022-09-20T09:28:14;1.40;;;0.70;;
40322;SDS011;26030;51.164;17.100;2022-09-20T09:33:29;4.70;;;1.00;;
40322;SDS011;26030;51.164;17.100;2022-09-20T09:38:37;3.20;;;1.20;;
40322;SDS011;26030;51.164;17.100;2022-09-20T09:43:42;2.90;;;1.10;;
40322;SDS011;26030;51.164;17.100;2022-09-20T09:48:47;4.10;;;1.30;;
40322;SDS011;26030;51.164;17.100;2022-09-20T09:54:16;2.40;;;1.30;;
40322;SDS011;26030;51.164;17.100;2022-09-20T09:59:36;4.60;;;1.50;;
40322;SDS011;26030;51.164;17.100;2022-09-20T10:04:55;4.60;;;1.10;;
40322;SDS011;26030;51.164;17.100;2022-09-20T10:10:28;3.00;;;1.10;;
40322;SDS011;26030;51.164;17.100;2022-09-20T10:31:39;4.00;;;1.50;;
40322;SDS011;26030;51.164;17.100;2022-09-20T10:36:56;3.00;;;1.50;;
40322;SDS011;26030;51.164;17.100;2022-09-20T10:42:34;2.90;;;1.20;;
40322;SDS011;26030;51.164;17.100;2022-09-20T11:08:35;2.40;;;1.30;;
40322;SDS011;26030;51.164;17.100;2022-09-20T11:19:51;2.80;;;1.20;;
40322;SDS011;26030;51.164;17.100;2022-09-20T11:30:19;2.60;;;1.10;;
40322;SDS011;26030;51.164;17.100;2022-09-20T11:40:40;2.30;;;1.10;;
40322;SDS011;26030;51.164;17.100;2022-09-20T11:45:50;5.20;;;1.30;;
40322;SDS011;26030;51.164;17.100;2022-09-20T11:51:19;2.60;;;1.30;;
40322;SDS011;26030;51.164;17.100;2022-09-20T11:56:30;3.10;;;1.20;;
40322;SDS011;26030;51.164;17.100;2022-09-20T12:01:38;4.50;;;1.40;;
40322;SDS011;26030;51.164;17.100;2022-09-20T12:12:40;5.40;;;1.10;;
40322;SDS011;26030;51.164;17.100;2022-09-20T12:28:37;5.00;;;1.40;;
40322;SDS011;26030;51.164;17.100;2022-09-20T12:55:09;35.30;;;9.40;;
40322;SDS011;26030;51.164;17.100;2022-09-20T13:11:19;11.50;;;3.20;;
40322;SDS011;26030;51.164;17.100;2022-09-20T13:21:43;19.30;;;3.70;;
40322;SDS011;26030;51.164;17.100;2022-09-20T13:26:55;11.20;;;3.90;;
40322;SDS011;26030;51.164;17.100;2022-09-20T13:32:26;16.80;;;3.80;;
40322;SDS011;26030;51.164;17.100;2022-09-20T13:37:34;10.70;;;3.10;;
40322;SDS011;26030;51.164;17.100;2022-09-20T13:42:41;11.70;;;3.40;;
40322;SDS011;26030;51.164;17.100;2022-09-20T13:47:49;11.00;;;3.10;;
40322;SDS011;26030;51.164;17.100;2022-09-20T13:53:00;12.60;;;3.40;;
40322;SDS011;26030;51.164;17.100;2022-09-20T14:03:24;9.90;;;2.50;;
40322;SDS011;26030;51.164;17.100;2022-09-20T14:08:48;9.70;;;3.50;;
40322;SDS011;26030;51.164;17.100;2022-09-20T14:13:54;7.90;;;3.10;;
40322;SDS011;26030;51.164;17.100;2022-09-20T14:19:04;8.00;;;2.50;;
40322;SDS011;26030;51.164;17.100;2022-09-20T14:29:37;8.40;;;2.90;;
40322;SDS011;26030;51.164;17.100;2022-09-20T14:35:21;6.90;;;2.50;;
40322;SDS011;26030;51.164;17.100;2022-09-20T14:40:30;9.60;;;2.90;;
40322;SDS011;26030;51.164;17.100;2022-09-20T14:45:40;13.40;;;2.90;;
40322;SDS011;26030;51.164;17.100;2022-09-20T14:56:33;9.60;;;2.90;;
40322;SDS011;26030;51.164;17.100;2022-09-20T15:02:10;8.00;;;3.00;;
40322;SDS011;26030;51.164;17.100;2022-09-20T15:07:21;10.30;;;3.30;;
40322;SDS011;26030;51.164;17.100;2022-09-20T15:12:24;15.30;;;3.50;;
40322;SDS011;26030;51.164;17.100;2022-09-20T15:17:28;10.30;;;2.90;;
40322;SDS011;26030;51.164;17.100;2022-09-20T15:22:36;7.90;;;2.30;;
40322;SDS011;26030;51.164;17.100;2022-09-20T15:27:42;11.20;;;2.60;;
40322;SDS011;26030;51.164;17.100;2022-09-20T15:32:48;8.30;;;2.90;;
40322;SDS011;26030;51.164;17.100;2022-09-20T15:37:54;8.10;;;2.70;;
40322;SDS011;26030;51.164;17.100;2022-09-20T15:42:58;27.80;;;3.00;;
40322;SDS011;26030;51.164;17.100;2022-09-20T15:48:03;11.30;;;2.90;;
40322;SDS011;26030;51.164;17.100;2022-09-20T15:54:01;23.40;;;3.70;;
40322;SDS011;26030;51.164;17.100;2022-09-20T15:59:10;9.90;;;2.40;;
40322;SDS011;26030;51.164;17.100;2022-09-20T16:04:15;9.20;;;2.70;;
40322;SDS011;26030;51.164;17.100;2022-09-20T16:09:24;8.00;;;2.80;;
40322;SDS011;26030;51.164;17.100;2022-09-20T16:14:44;12.20;;;4.20;;
40322;SDS011;26030;51.164;17.100;2022-09-20T16:20:00;10.80;;;3.10;;
40322;SDS011;26030;51.164;17.100;2022-09-20T16:25:32;11.40;;;3.10;;
40322;SDS011;26030;51.164;17.100;2022-09-20T16:30:58;7.70;;;2.40;;
40322;SDS011;26030;51.164;17.100;2022-09-20T16:36:08;8.30;;;2.80;;
40322;SDS011;26030;51.164;17.100;2022-09-20T16:41:16;4.90;;;2.50;;
40322;SDS011;26030;51.164;17.100;2022-09-20T16:46:25;8.20;;;2.80;;
40322;SDS011;26030;51.164;17.100;2022-09-20T16:51:43;8.50;;;2.90;;
40322;SDS011;26030;51.164;17.100;2022-09-20T16:56:56;9.50;;;3.00;;
40322;SDS011;26030;51.164;17.100;2022-09-20T17:02:21;13.50;;;2.80;;
40322;SDS011;26030;51.164;17.100;2022-09-20T17:07:38;9.10;;;3.10;;
40322;SDS011;26030;51.164;17.100;2022-09-20T17:12:46;14.60;;;4.00;;
40322;SDS011;26030;51.164;17.100;2022-09-20T17:17:56;12.20;;;3.70;;
40322;SDS011;26030;51.164;17.100;2022-09-20T17:23:07;11.40;;;2.70;;
40322;SDS011;26030;51.164;17.100;2022-09-20T17:28:12;10.40;;;3.20;;
40322;SDS011;26030;51.164;17.100;2022-09-20T17:33:20;7.20;;;2.80;;
40322;SDS011;26030;51.164;17.100;2022-09-20T17:38:28;13.00;;;3.30;;
40322;SDS011;26030;51.164;17.100;2022-09-20T17:43:46;9.60;;;2.60;;
40322;SDS011;26030;51.164;17.100;2022-09-20T17:48:59;13.50;;;3.30;;
40322;SDS011;26030;51.164;17.100;2022-09-20T17:54:07;17.00;;;3.10;;
40322;SDS011;26030;51.164;17.100;2022-09-20T17:59:15;16.70;;;3.50;;
40322;SDS011;26030;51.164;17.100;2022-09-20T18:04:27;9.60;;;2.50;;
40322;SDS011;26030;51.164;17.100;2022-09-20T18:09:43;6.60;;;2.30;;
40322;SDS011;26030;51.164;17.100;2022-09-20T18:14:52;8.90;;;2.80;;
40322;SDS011;26030;51.164;17.100;2022-09-20T18:19:59;11.20;;;2.90;;
40322;SDS011;26030;51.164;17.100;2022-09-20T18:25:08;8.80;;;2.60;;
40322;SDS011;26030;51.164;17.100;2022-09-20T18:30:12;13.20;;;2.80;;
40322;SDS011;26030;51.164;17.100;2022-09-20T18:35:21;12.20;;;3.20;;
40322;SDS011;26030;51.164;17.100;2022-09-20T18:40:26;12.70;;;3.70;;
40322;SDS011;26030;51.164;17.100;2022-09-20T18:45:34;10.10;;;2.20;;
40322;SDS011;26030;51.164;17.100;2022-09-20T18:50:39;8.30;;;2.60;;
40322;SDS011;26030;51.164;17.100;2022-09-20T18:55:47;7.20;;;2.60;;
40322;SDS011;26030;51.164;17.100;2022-09-20T19:01:16;14.70;;;3.00;;
40322;SDS011;26030;51.164;17.100;2022-09-20T19:06:34;10.10;;;3.50;;
40322;SDS011;26030;51.164;17.100;2022-09-20T19:11:49;15.30;;;2.80;;
40322;SDS011;26030;51.164;17.100;2022-09-20T19:17:00;8.90;;;2.50;;
40322;SDS011;26030;51.164;17.100;2022-09-20T19:22:33;7.00;;;2.60;;
40322;SDS011;26030;51.164;17.100;2022-09-20T19:27:42;6.70;;;2.50;;
40322;SDS011;26030;51.164;17.100;2022-09-20T19:32:50;10.70;;;3.60;;
40322;SDS011;26030;51.164;17.100;2022-09-20T19:38:11;11.70;;;2.80;;
40322;SDS011;26030;51.164;17.100;2022-09-20T19:48:38;15.50;;;3.30;;
40322;SDS011;26030;51.164;17.100;2022-09-20T19:53:54;11.20;;;3.00;;
40322;SDS011;26030;51.164;17.100;2022-09-20T19:59:00;9.70;;;3.00;;
40322;SDS011;26030;51.164;17.100;2022-09-20T20:04:05;11.10;;;3.30;;
40322;SDS011;26030;51.164;17.100;2022-09-20T20:19:58;8.40;;;3.50;;
40322;SDS011;26030;51.164;17.100;2022-09-20T20:25:24;8.90;;;3.30;;
40322;SDS011;26030;51.164;17.100;2022-09-20T20:30:34;7.20;;;2.50;;
40322;SDS011;26030;51.164;17.100;2022-09-20T20:35:38;6.80;;;2.50;;
40322;SDS011;26030;51.164;17.100;2022-09-20T20:40:42;8.30;;;2.60;;
40322;SDS011;26030;51.164;17.100;2022-09-20T20:45:51;14.20;;;3.60;;
40322;SDS011;26030;51.164;17.100;2022-09-20T20:56:22;9.40;;;2.90;;
40322;SDS011;26030;51.164;17.100;2022-09-20T21:01:36;11.40;;;2.80;;
40322;SDS011;26030;51.164;17.100;2022-09-20T21:06:50;9.00;;;2.90;;
40322;SDS011;26030;51.164;17.100;2022-09-20T21:12:03;6.70;;;2.70;;
40322;SDS011;26030;51.164;17.100;2022-09-20T21:17:07;9.60;;;2.50;;
40322;SDS011;26030;51.164;17.100;2022-09-20T21:22:10;7.80;;;2.50;;
40322;SDS011;26030;51.164;17.100;2022-09-20T21:27:14;5.50;;;2.20;;
40322;SDS011;26030;51.164;17.100;2022-09-20T21:32:18;4.60;;;2.30;;
40322;SDS011;26030;51.164;17.100;2022-09-20T21:37:23;6.30;;;2.50;;
40322;SDS011;26030;51.164;17.100;2022-09-20T21:42:28;4.20;;;2.20;;
40322;SDS011;26030;51.164;17.100;2022-09-20T21:47:34;9.40;;;1.90;;
40322;SDS011;26030;51.164;17.100;2022-09-20T21:52:38;4.10;;;1.70;;
40322;SDS011;26030;51.164;17.100;2022-09-20T21:57:48;4.50;;;1.80;;
40322;SDS011;26030;51.164;17.100;2022-09-20T22:02:53;3.90;;;1.90;;
40322;SDS011;26030;51.164;17.100;2022-09-20T22:08:01;4.50;;;1.60;;
40322;SDS011;26030;51.164;17.100;2022-09-20T22:13:07;4.20;;;2.10;;
40322;SDS011;26030;51.164;17.100;2022-09-20T22:18:10;5.70;;;2.10;;
40322;SDS011;26030;51.164;17.100;2022-09-20T22:23:14;4.20;;;1.90;;
40322;SDS011;26030;51.164;17.100;2022-09-20T22:28:18;4.20;;;2.00;;
40322;SDS011;26030;51.164;17.100;2022-09-20T22:33:21;5.40;;;2.10;;
40322;SDS011;26030;51.164;17.100;2022-09-20T22:38:27;6.30;;;2.90;;
40322;SDS011;26030;51.164;17.100;2022-09-20T22:43:32;6.50;;;2.40;;
40322;SDS011;26030;51.164;17.100;2022-09-20T22:48:37;4.40;;;1.90;;
40322;SDS011;26030;51.164;17.100;2022-09-20T22:53:41;5.20;;;2.50;;
40322;SDS011;26030;51.164;17.100;2022-09-20T22:58:52;3.90;;;1.90;;
40322;SDS011;26030;51.164;17.100;2022-09-20T23:04:10;4.40;;;1.90;;
40322;SDS011;26030;51.164;17.100;2022-09-20T23:09:19;6.00;;;1.70;;
40322;SDS011;26030;51.164;17.100;2022-09-20T23:14:24;9.40;;;2.10;;
40322;SDS011;26030;51.164;17.100;2022-09-20T23:19:28;5.10;;;2.20;;
40322;SDS011;26030;51.164;17.100;2022-09-20T23:24:32;4.10;;;1.70;;
40322;SDS011;26030;51.164;17.100;2022-09-20T23:29:37;5.00;;;1.80;;
40322;SDS011;26030;51.164;17.100;2022-09-20T23:34:40;6.00;;;1.90;;
40322;SDS011;26030;51.164;17.100;2022-09-20T23:39:44;4.20;;;2.00;;
40322;SDS011;26030;51.164;17.100;2022-09-20T23:44:47;3.80;;;1.90;;
40322;SDS011;26030;51.164;17.100;2022-09-20T23:49:51;3.90;;;1.90;;
40322;SDS011;26030;51.164;17.100;2022-09-20T23:54:54;3.40;;;1.80;;
40322;SDS011;26030;51.164;17.100;2022-09-20T23:59:58;3.20;;;1.70;;
